OSLK1: Labette Creek nr Oswego Ks

                                SHEF ID:       OSLK1     LABETTE C NR OSWEGO, KS
STATION TYPE:
Regulating: Stage = 20.00, Flow = 5533

PRECIP STAGE RIV-FLOW BAT-LOAD
in ft cfs volt
Ccp-Rev Ccp-Rev Ccp-Rev Ccp-Rev
(America/Chicago)
04/29 00:00 ---- 8.18 608 12.37
04/29 01:00 ---- 8.27 656 12.35
04/29 02:00 ---- 8.27 656 12.33
04/29 03:00 ---- 8.27 656 12.31
04/29 04:00 ---- 8.27 656 12.27
04/29 05:00 ---- 8.25 646 12.25
04/29 06:00 ---- 8.21 624 12.23
04/29 07:00 ---- 8.14 588 12.21
04/29 08:00 ---- 8.07 552 12.21
04/29 09:00 ---- 8.00 519 12.35
04/29 10:00 ---- 7.94 491 13.01
04/29 11:00 ---- 7.87 459 13.39
04/29 12:00 ---- 7.79 425 13.24
04/29 13:00 ---- 7.74 404 13.17
04/29 14:00 ---- 7.68 380 13.14
04/29 15:00 ---- 7.62 357 13.11
04/29 16:00 ---- 7.57 338 13.08
04/29 17:00 ---- 7.51 317 13.03
04/29 18:00 ---- 7.47 303 13.01
04/29 19:00 ---- 7.42 286 13.01
04/29 20:00 ---- 7.39 276 12.88
04/29 21:00 ---- 7.34 260 12.70
04/29 22:00 ---- 7.31 251 12.54
04/29 23:00 ---- ---- ---- 12.45
Data processed at Thu 30Apr2026 04:13 GMT

NOTICE: If you are parsing this page

Please convert to using our Data API. Starting early 2026 we will be migrating to: https://water.usace.army.mil with modern pages rendered in JavaScript. When this migration completes you will no longer be able to scrape this page! CWMSDataAPI (CDA)

Timeseries IDs (TSIDs)

TSIDs used from left to right in the data table
OSWE.Precip-Inc.Total.1Hour.1Hour.Ccp-Rev
OSWE.Stage.Inst.1Hour.0.Ccp-Rev
OSWE.Flow.Inst.1Hour.0.Ccp-Rev
OSWE.Volt-Battery Load.Inst.1Hour.0.Ccp-Rev

                            

All information presented herein is the property of the government of the United States of America and may be revised or deleted at any time without prior notice. Dissemination of this information without the expressed written consent of the Public Affairs Office, Tulsa District U.S. Army Corps of Engineers is strictly prohibited. These data are gathered electronically and, as presented, have NOT undergone any form of quality control. These data are NOT guaranteed to be valid or correct.